Antelope, Texas
Current Conditions -  °F | °C
As of 12:10 PM on Thursday 29 Jan 2015 (Local Time) from KRPH Reporting Station
Clear Clear  
Wind Chill: 16°   Ceiling: Unl
Heat Index: 16°   Visibility: 10mi
Dew Point:   Wind: 20mph
Humidity: 46%   Direction: 360°N
Pressure: 30.34"   Gusts: 30mph
Location:  33.4259°N, 98.383°W
Report Text: KRPH 291810Z AUTO 36017G26KT 10SM CLR 16/04 A3034 RMK AO2 T01570040
Loading
Personal Weather Stations






























Interactive Weather Map New forecast layout! Learn more

10-Day Weather Forecast

Advertisements
Track Severe Weather on mobile